Time;durP1;ratioP1;P1;durP2;ratioP2;P2;SDS_P1;SDS_P2;PMS_P1;PMS_P2;Temp;Humidity;BMP_temperature;BMP_pressure;BME280_temperature;BME280_humidity;BME280_pressure;Samples;Min_cycle;Max_cycle;Signal;HPM_P1;HPM_P2
2021/01/20 00:01:17;;;;;;;11.68;7.78;;;8.60;99.90;;;;;;6952705;28;20486;-64
2021/01/20 00:04:37;;;;;;;11.05;7.57;;;8.60;99.90;;;;;;6950066;28;20451;-63
2021/01/20 00:07:58;;;;;;;11.73;7.93;;;8.60;99.90;;;;;;6952455;28;20383;-63
2021/01/20 00:11:19;;;;;;;10.80;7.83;;;8.60;99.90;;;;;;6946457;28;20901;-63
2021/01/20 00:14:40;;;;;;;12.18;8.25;;;8.50;99.90;;;;;;6955970;28;20465;-64
2021/01/20 00:18:01;;;;;;;10.30;7.53;;;8.60;99.90;;;;;;6948444;28;20419;-63
2021/01/20 00:21:22;;;;;;;11.50;8.23;;;8.60;99.90;;;;;;6921864;28;20393;-63
2021/01/20 00:24:42;;;;;;;11.30;7.93;;;8.60;99.90;;;;;;6934615;28;20993;-63
2021/01/20 00:28:03;;;;;;;12.20;8.50;;;8.50;99.90;;;;;;6947680;28;20470;-64
2021/01/20 00:31:24;;;;;;;11.93;8.33;;;8.60;99.90;;;;;;6915078;28;20418;-62
2021/01/20 00:34:45;;;;;;;12.10;8.70;;;8.50;99.90;;;;;;6947896;28;20421;-64
2021/01/20 00:38:06;;;;;;;13.45;9.27;;;8.40;99.90;;;;;;6944168;28;20425;-62
2021/01/20 00:41:26;;;;;;;11.90;8.50;;;8.40;99.90;;;;;;6933312;28;20876;-63
2021/01/20 00:44:47;;;;;;;13.53;8.90;;;8.40;99.90;;;;;;6945788;28;20888;-63
2021/01/20 00:48:10;;;;;;;12.70;9.20;;;8.40;99.90;;;;;;6943677;28;20778;-62
2021/01/20 00:51:31;;;;;;;13.07;9.10;;;8.40;99.90;;;;;;6937346;28;20415;-61
2021/01/20 00:54:51;;;;;;;12.68;9.00;;;8.40;99.90;;;;;;6944005;28;20404;-64
2021/01/20 00:58:12;;;;;;;12.85;9.00;;;8.40;99.90;;;;;;6943940;28;20423;-62
2021/01/20 01:01:34;;;;;;;14.95;10.32;;;8.30;99.90;;;;;;6941002;28;20414;-63
2021/01/20 01:04:56;;;;;;;12.50;9.27;;;8.30;99.90;;;;;;6948400;28;20388;-62
2021/01/20 01:08:17;;;;;;;14.15;10.20;;;8.20;99.90;;;;;;6961189;28;20393;-63
2021/01/20 01:11:40;;;;;;;13.35;10.15;;;8.10;99.90;;;;;;6943365;28;20837;-62
2021/01/20 01:15:03;;;;;;;15.53;10.73;;;8.00;99.90;;;;;;6941590;28;20409;-61
2021/01/20 01:18:28;;;;;;;15.75;10.80;;;8.00;99.90;;;;;;6950779;28;20413;-63
2021/01/20 01:21:49;;;;;;;15.63;10.93;;;8.00;99.90;;;;;;6945129;28;20411;-62
2021/01/20 01:25:11;;;;;;;14.85;10.63;;;7.90;99.90;;;;;;6928151;28;20965;-62
2021/01/20 01:28:37;;;;;;;17.48;11.85;;;7.90;99.90;;;;;;6946392;28;20448;-62
2021/01/20 01:32:27;;;;;;;16.67;11.80;;;7.80;99.90;;;;;;6964958;28;20474;-63
2021/01/20 01:35:50;;;;;;;17.38;12.57;;;7.80;99.90;;;;;;6945569;28;20739;-60
2021/01/20 01:39:11;;;;;;;17.42;12.60;;;7.90;99.90;;;;;;6947586;28;20487;-62
2021/01/20 01:42:37;;;;;;;17.65;12.65;;;7.90;99.90;;;;;;6936441;28;20401;-64
2021/01/20 01:45:58;;;;;;;17.48;13.20;;;7.90;99.90;;;;;;6950782;28;20902;-64
2021/01/20 01:49:19;;;;;;;18.65;13.70;;;7.80;99.90;;;;;;6935060;28;20764;-64
2021/01/20 01:52:41;;;;;;;19.90;14.60;;;7.70;99.90;;;;;;6948519;28;20919;-63
2021/01/20 01:56:24;;;;;;;21.20;15.40;;;7.70;99.90;;;;;;6982841;28;20407;-64
2021/01/20 01:59:53;;;;;;;20.53;15.40;;;7.50;99.90;;;;;;6936331;28;20458;-63
2021/01/20 02:03:35;;;;;;;20.53;15.10;;;7.50;99.90;;;;;;6959172;28;20543;-62
2021/01/20 02:06:57;;;;;;;23.20;16.63;;;7.40;99.90;;;;;;6931003;28;20914;-62
2021/01/20 02:10:23;;;;;;;21.23;15.88;;;7.40;99.90;;;;;;6946795;28;20446;-62
2021/01/20 02:13:51;;;;;;;23.17;16.98;;;7.40;99.90;;;;;;6931262;28;20415;-60
2021/01/20 02:17:44;;;;;;;22.38;16.58;;;7.40;99.90;;;;;;6958137;28;20914;-64
2021/01/20 02:21:35;;;;;;;23.17;16.90;;;7.30;99.90;;;;;;6928402;28;20493;-61
2021/01/20 02:25:55;;;;;;;23.50;16.90;;;7.30;99.90;;;;;;6949636;28;20837;-61
2021/01/20 02:29:58;;;;;;;22.38;15.30;;;7.30;99.90;;;;;;6939840;28;20415;-62
2021/01/20 02:33:39;;;;;;;21.27;15.40;;;7.30;99.90;;;;;;6944891;28;20481;-62
2021/01/20 02:37:15;;;;;;;22.15;16.23;;;7.20;99.90;;;;;;6944679;28;20413;-62
2021/01/20 02:41:28;;;;;;;20.75;15.63;;;7.30;99.90;;;;;;6943639;28;20411;-64
2021/01/20 02:45:15;;;;;;;20.48;14.93;;;7.30;99.90;;;;;;6927753;28;20419;-64
2021/01/20 02:48:39;;;;;;;20.50;14.65;;;7.30;99.90;;;;;;6954181;28;20409;-65
2021/01/20 02:52:19;;;;;;;20.02;14.35;;;7.20;99.90;;;;;;6937447;28;20413;-64
2021/01/20 02:56:01;;;;;;;21.23;14.77;;;7.20;99.90;;;;;;6950761;28;20415;-62
2021/01/20 02:59:33;;;;;;;20.95;14.55;;;7.10;99.90;;;;;;6965086;28;20425;-61
2021/01/20 03:03:20;;;;;;;18.40;13.80;;;7.10;99.90;;;;;;6951588;28;20377;-64
2021/01/20 03:06:41;;;;;;;21.45;14.50;;;7.20;99.90;;;;;;6947885;28;20408;-62
2021/01/20 03:10:04;;;;;;;19.10;14.40;;;7.20;99.90;;;;;;6945705;28;20408;-63
2021/01/20 03:13:25;;;;;;;18.80;14.40;;;7.20;99.90;;;;;;6956287;28;20431;-62
2021/01/20 03:16:46;;;;;;;19.33;14.20;;;7.20;99.90;;;;;;6956323;28;20407;-62
2021/01/20 03:20:07;;;;;;;20.38;14.18;;;7.10;99.90;;;;;;6966886;28;20408;-64
2021/01/20 03:23:28;;;;;;;21.00;13.90;;;7.20;99.90;;;;;;6957075;28;20409;-63
2021/01/20 03:26:49;;;;;;;19.07;13.97;;;7.00;99.90;;;;;;6954267;28;20419;-64
2021/01/20 03:30:10;;;;;;;18.98;13.50;;;7.10;99.90;;;;;;6959028;28;20469;-62
2021/01/20 03:33:31;;;;;;;18.55;13.65;;;7.00;99.90;;;;;;6960264;28;20798;-65
2021/01/20 03:36:52;;;;;;;17.50;12.88;;;7.10;99.90;;;;;;6945309;28;20391;-65
2021/01/20 03:40:12;;;;;;;17.40;13.40;;;7.00;99.90;;;;;;6945448;28;20429;-63
2021/01/20 03:43:33;;;;;;;17.27;13.80;;;7.00;99.90;;;;;;6979481;28;20500;-63
2021/01/20 03:46:54;;;;;;;18.25;13.20;;;7.00;99.90;;;;;;6953086;28;20410;-62
2021/01/20 03:50:15;;;;;;;17.55;12.80;;;6.90;99.90;;;;;;6962553;28;20416;-62
2021/01/20 03:53:36;;;;;;;20.35;13.80;;;7.00;99.90;;;;;;6957741;28;20500;-62
2021/01/20 03:56:56;;;;;;;17.20;13.50;;;6.90;99.90;;;;;;6972452;28;20944;-62
2021/01/20 04:00:18;;;;;;;17.63;13.90;;;6.80;99.90;;;;;;6961584;28;20402;-63
2021/01/20 04:03:38;;;;;;;18.55;14.07;;;6.70;99.90;;;;;;6951293;28;20411;-61
2021/01/20 04:07:11;;;;;;;20.77;14.43;;;6.60;99.90;;;;;;6950871;28;20935;-61
2021/01/20 04:10:32;;;;;;;19.65;14.70;;;6.60;99.90;;;;;;6939863;28;20507;-62
2021/01/20 04:13:53;;;;;;;18.67;14.60;;;6.50;99.90;;;;;;6950684;28;20416;-62
2021/01/20 04:17:14;;;;;;;21.97;15.10;;;6.60;99.90;;;;;;6950807;28;20413;-64
2021/01/20 04:20:35;;;;;;;21.40;14.90;;;6.60;99.90;;;;;;6956457;28;20890;-64
2021/01/20 04:23:55;;;;;;;21.10;15.30;;;6.70;99.90;;;;;;6952536;28;20399;-64
2021/01/20 04:27:16;;;;;;;21.13;14.65;;;6.60;99.90;;;;;;6929542;28;20403;-62
2021/01/20 04:30:37;;;;;;;20.88;15.27;;;6.60;99.90;;;;;;6931407;28;20418;-63
2021/01/20 04:33:58;;;;;;;21.47;15.43;;;6.50;99.90;;;;;;6922147;28;20999;-63
2021/01/20 04:37:19;;;;;;;20.40;14.60;;;6.40;99.90;;;;;;6926851;28;20415;-62
2021/01/20 04:40:40;;;;;;;21.73;15.80;;;6.40;99.90;;;;;;6922388;28;20406;-64
2021/01/20 04:44:01;;;;;;;21.23;15.05;;;6.40;99.90;;;;;;6926358;28;20399;-63
2021/01/20 04:47:22;;;;;;;22.27;15.00;;;6.40;99.90;;;;;;6939874;28;20399;-64
2021/01/20 04:50:48;;;;;;;21.40;14.80;;;6.40;99.90;;;;;;6945129;28;20434;-64
2021/01/20 04:54:12;;;;;;;22.15;14.88;;;6.30;99.90;;;;;;6927855;28;20974;-65
2021/01/20 04:57:34;;;;;;;21.25;14.80;;;6.30;99.90;;;;;;6925995;28;20780;-63
2021/01/20 05:00:55;;;;;;;20.43;14.80;;;6.30;99.90;;;;;;6924577;28;20430;-65
2021/01/20 05:04:16;;;;;;;19.10;13.83;;;6.30;99.90;;;;;;6927513;28;20402;-63
2021/01/20 05:07:37;;;;;;;18.23;13.88;;;6.30;99.90;;;;;;6928671;28;20478;-64
2021/01/20 05:10:58;;;;;;;18.33;13.20;;;6.30;99.90;;;;;;6928686;28;20737;-64
2021/01/20 05:14:18;;;;;;;19.77;13.97;;;6.30;99.90;;;;;;6929172;28;20411;-64
2021/01/20 05:17:59;;;;;;;18.45;12.98;;;6.20;99.90;;;;;;6932058;28;20423;-65
2021/01/20 05:21:20;;;;;;;19.60;12.73;;;6.20;99.90;;;;;;6923576;28;20478;-65
2021/01/20 05:24:41;;;;;;;18.40;12.60;;;6.10;99.90;;;;;;6930271;28;20418;-64
2021/01/20 05:28:19;;;;;;;16.77;12.40;;;6.20;99.90;;;;;;6920110;28;20432;-64
2021/01/20 05:31:41;;;;;;;16.60;11.07;;;6.30;99.90;;;;;;6931972;28;20453;-64
2021/01/20 05:35:06;;;;;;;14.95;11.40;;;6.20;99.90;;;;;;6929568;28;20873;-63
2021/01/20 05:38:34;;;;;;;15.53;10.80;;;6.20;99.90;;;;;;6939275;28;20417;-64
2021/01/20 05:42:11;;;;;;;14.13;10.30;;;6.20;99.90;;;;;;6933769;28;20413;-63
2021/01/20 05:45:44;;;;;;;13.80;10.27;;;6.20;99.90;;;;;;6918768;28;20734;-63
2021/01/20 05:49:06;;;;;;;14.95;10.43;;;6.20;99.90;;;;;;6923901;28;20479;-63
2021/01/20 05:52:27;;;;;;;14.35;9.95;;;6.20;99.90;;;;;;6920751;28;20419;-63
2021/01/20 05:56:04;;;;;;;12.53;9.70;;;6.20;99.90;;;;;;6924087;28;20772;-63
2021/01/20 05:59:25;;;;;;;14.70;10.50;;;6.10;99.90;;;;;;6921321;28;20423;-63
2021/01/20 06:02:47;;;;;;;14.63;10.23;;;6.00;99.90;;;;;;6921279;28;20411;-62
2021/01/20 06:06:09;;;;;;;15.15;10.20;;;5.90;99.90;;;;;;6932170;28;20793;-63
2021/01/20 06:09:32;;;;;;;14.67;10.50;;;5.90;99.90;;;;;;6925001;28;21004;-62
2021/01/20 06:12:53;;;;;;;12.30;9.82;;;5.90;99.90;;;;;;6931055;28;20420;-64
2021/01/20 06:16:19;;;;;;;13.32;9.20;;;5.80;99.90;;;;;;6930861;28;20422;-63
2021/01/20 06:19:49;;;;;;;13.60;9.33;;;5.80;99.90;;;;;;6950044;28;20426;-62
2021/01/20 06:23:12;;;;;;;14.63;9.52;;;5.90;99.90;;;;;;6928523;28;20412;-63
2021/01/20 06:26:42;;;;;;;12.70;8.95;;;5.80;99.90;;;;;;6947186;28;20456;-64
2021/01/20 06:30:29;;;;;;;13.07;8.60;;;5.80;99.90;;;;;;6933418;28;20448;-64
2021/01/20 06:33:50;;;;;;;12.50;8.50;;;5.80;99.90;;;;;;6933469;28;20426;-64
2021/01/20 06:37:44;;;;;;;13.30;8.70;;;5.80;99.90;;;;;;6930033;28;20408;-64
2021/01/20 06:41:10;;;;;;;14.40;8.57;;;5.90;99.90;;;;;;6943929;28;20453;-64
2021/01/20 06:44:30;;;;;;;11.60;8.20;;;5.80;99.90;;;;;;6945264;28;20868;-63
2021/01/20 06:48:01;;;;;;;11.77;8.50;;;5.70;99.90;;;;;;6920874;28;20492;-64
2021/01/20 06:51:23;;;;;;;12.27;8.20;;;5.80;99.90;;;;;;6917860;28;20412;-65
2021/01/20 06:54:47;;;;;;;11.82;7.90;;;5.80;99.90;;;;;;6935924;28;20442;-65
2021/01/20 06:58:24;;;;;;;12.13;8.50;;;5.90;99.90;;;;;;6951912;28;20419;-63
2021/01/20 07:02:08;;;;;;;11.90;8.70;;;5.80;99.90;;;;;;6940618;28;20751;-64
2021/01/20 07:05:37;;;;;;;12.65;8.05;;;5.80;99.90;;;;;;6937725;28;20404;-65
2021/01/20 07:08:57;;;;;;;11.23;7.85;;;5.80;99.90;;;;;;6926081;28;21031;-67
2021/01/20 07:12:23;;;;;;;12.32;7.57;;;5.90;99.90;;;;;;6921233;28;20403;-65
2021/01/20 07:15:49;;;;;;;11.47;7.87;;;5.90;99.90;;;;;;6938222;28;20899;-64
2021/01/20 07:19:10;;;;;;;12.02;7.72;;;6.00;99.90;;;;;;6935899;28;20430;-65
2021/01/20 07:22:31;;;;;;;11.27;7.80;;;6.00;99.90;;;;;;6940316;28;20404;-65
2021/01/20 07:25:53;;;;;;;11.13;7.70;;;6.00;99.90;;;;;;6940788;28;20410;-64
2021/01/20 07:29:16;;;;;;;11.10;7.77;;;6.00;99.90;;;;;;6921841;28;20439;-63
2021/01/20 07:32:37;;;;;;;12.87;7.70;;;6.10;99.90;;;;;;6943132;28;20863;-63
2021/01/20 07:36:11;;;;;;;10.83;6.80;;;6.10;99.90;;;;;;6939071;28;20427;-63
2021/01/20 07:39:33;;;;;;;10.07;7.57;;;6.10;99.90;;;;;;6950671;28;20449;-63
2021/01/20 07:42:54;;;;;;;11.43;7.63;;;6.00;99.90;;;;;;6927816;28;20469;-64
2021/01/20 07:46:17;;;;;;;10.93;7.20;;;6.10;99.90;;;;;;6961409;28;20478;-64
2021/01/20 07:49:52;;;;;;;10.00;7.20;;;6.20;99.90;;;;;;6982244;28;20399;-64
2021/01/20 07:53:22;;;;;;;9.77;6.95;;;6.20;99.90;;;;;;6939345;28;20955;-64
2021/01/20 07:56:48;;;;;;;10.30;7.00;;;6.30;99.90;;;;;;6931578;28;20944;-64
2021/01/20 08:00:11;;;;;;;10.68;7.25;;;6.40;99.90;;;;;;6921252;28;20418;-64
2021/01/20 08:03:36;;;;;;;10.65;7.18;;;6.50;99.90;;;;;;6940250;28;20408;-63
2021/01/20 08:06:56;;;;;;;10.40;6.88;;;6.50;99.90;;;;;;6947532;28;20869;-64
2021/01/20 08:10:19;;;;;;;9.90;6.73;;;6.50;99.90;;;;;;6929360;28;20407;-64
2021/01/20 08:13:40;;;;;;;10.27;7.00;;;6.50;99.90;;;;;;6950194;28;20411;-64
2021/01/20 08:17:03;;;;;;;11.73;7.10;;;6.60;99.90;;;;;;6954433;28;20409;-62
2021/01/20 08:20:25;;;;;;;10.60;6.80;;;6.60;99.90;;;;;;6928642;28;20396;-64
2021/01/20 08:23:53;;;;;;;10.70;6.53;;;6.60;99.90;;;;;;6945402;28;20400;-64
2021/01/20 08:27:28;;;;;;;9.87;6.80;;;6.60;99.90;;;;;;6947255;28;20765;-64
2021/01/20 08:30:49;;;;;;;8.55;6.28;;;6.70;99.90;;;;;;6917257;28;20403;-62
2021/01/20 08:34:16;;;;;;;8.40;6.32;;;6.80;99.90;;;;;;6963817;28;20425;-60
2021/01/20 08:37:40;;;;;;;8.83;6.10;;;6.80;99.90;;;;;;6936502;28;20417;-62
2021/01/20 08:41:11;;;;;;;8.45;6.20;;;6.90;99.90;;;;;;6929758;28;20410;-63
2021/01/20 08:45:05;;;;;;;9.82;6.60;;;7.00;99.90;;;;;;6927712;28;20759;-64
2021/01/20 08:48:29;;;;;;;9.20;6.43;;;7.00;99.90;;;;;;6927453;28;20546;-64
2021/01/20 08:51:57;;;;;;;8.65;6.07;;;7.00;99.90;;;;;;6950850;28;20481;-64
2021/01/20 08:55:40;;;;;;;8.45;6.00;;;7.20;99.90;;;;;;6927812;28;20420;-62
2021/01/20 08:59:01;;;;;;;8.20;5.80;;;7.20;99.90;;;;;;6932120;28;20421;-63
2021/01/20 09:02:23;;;;;;;7.70;5.90;;;7.30;99.90;;;;;;6948920;28;20441;-64
2021/01/20 09:05:49;;;;;;;8.07;5.65;;;7.40;99.90;;;;;;6940913;28;20897;-65
2021/01/20 09:09:10;;;;;;;7.10;5.50;;;7.40;99.90;;;;;;6933056;28;20784;-64
2021/01/20 09:12:31;;;;;;;8.13;5.37;;;7.50;99.90;;;;;;6939234;28;20433;-64
2021/01/20 09:15:53;;;;;;;9.60;6.20;;;7.60;99.90;;;;;;6946634;28;20447;-63
2021/01/20 09:19:14;;;;;;;8.32;5.20;;;7.60;99.90;;;;;;6929391;28;20441;-63
2021/01/20 09:22:39;;;;;;;8.90;6.03;;;7.50;99.90;;;;;;6961183;28;20389;-63
2021/01/20 09:26:00;;;;;;;6.85;5.40;;;7.70;99.90;;;;;;6938431;28;20916;-64
2021/01/20 09:29:24;;;;;;;7.50;4.97;;;7.80;99.90;;;;;;6937421;28;20414;-62
2021/01/20 09:32:46;;;;;;;7.43;5.50;;;7.80;99.90;;;;;;6937009;28;20416;-62
2021/01/20 09:36:07;;;;;;;7.03;5.28;;;7.80;99.90;;;;;;6945833;28;20881;-62
2021/01/20 09:39:28;;;;;;;8.52;5.50;;;7.80;99.90;;;;;;6934809;28;20472;-63
2021/01/20 09:42:50;;;;;;;7.00;5.10;;;7.80;99.90;;;;;;6949973;28;20888;-65
2021/01/20 09:46:11;;;;;;;7.30;5.32;;;7.90;99.90;;;;;;6931953;28;20441;-64
2021/01/20 09:49:32;;;;;;;6.88;5.00;;;8.00;99.90;;;;;;6957425;28;20429;-63
2021/01/20 09:52:53;;;;;;;8.27;5.18;;;8.10;99.90;;;;;;6951320;28;20514;-65
2021/01/20 09:56:14;;;;;;;7.70;5.10;;;8.10;99.90;;;;;;6915819;28;20407;-64
2021/01/20 09:59:35;;;;;;;7.00;4.88;;;8.20;99.90;;;;;;6939878;28;20466;-64
2021/01/20 10:02:56;;;;;;;6.50;4.80;;;8.40;99.90;;;;;;6951142;28;20408;-62
2021/01/20 10:06:17;;;;;;;7.00;4.70;;;8.40;99.90;;;;;;6935591;28;20885;-65
2021/01/20 10:09:38;;;;;;;7.50;5.17;;;8.40;99.90;;;;;;6935479;28;20478;-64
2021/01/20 10:12:59;;;;;;;7.80;5.20;;;8.40;99.90;;;;;;6956880;28;20476;-64
2021/01/20 10:16:20;;;;;;;7.33;4.70;;;8.40;99.90;;;;;;6935095;28;20409;-62
2021/01/20 10:19:41;;;;;;;7.13;5.05;;;8.50;99.90;;;;;;6944588;28;20955;-63
2021/01/20 10:23:02;;;;;;;7.30;5.10;;;8.50;99.90;;;;;;6949976;28;20403;-65
2021/01/20 10:26:26;;;;;;;6.82;5.10;;;8.40;99.90;;;;;;6941546;28;20951;-65
2021/01/20 10:29:47;;;;;;;7.50;5.00;;;8.30;99.90;;;;;;6938823;28;20430;-65
2021/01/20 10:33:07;;;;;;;7.40;4.80;;;8.20;99.90;;;;;;6957554;28;20413;-64
2021/01/20 10:36:29;;;;;;;6.53;5.10;;;8.30;99.90;;;;;;6928345;28;20414;-63
2021/01/20 10:39:50;;;;;;;6.53;5.00;;;8.30;99.90;;;;;;6953333;28;20421;-63
2021/01/20 10:43:11;;;;;;;6.60;4.93;;;8.30;99.90;;;;;;6950633;28;20405;-62
2021/01/20 10:46:32;;;;;;;7.47;5.10;;;8.30;99.90;;;;;;6930237;28;20450;-63
2021/01/20 10:49:53;;;;;;;7.22;4.95;;;8.40;99.90;;;;;;6954349;28;20426;-63
2021/01/20 10:53:14;;;;;;;6.57;4.90;;;8.40;99.90;;;;;;6933106;28;20925;-63
2021/01/20 10:56:35;;;;;;;6.90;5.10;;;8.50;99.90;;;;;;6954210;28;20901;-62
2021/01/20 10:59:56;;;;;;;7.18;5.00;;;8.50;99.90;;;;;;6939471;28;20495;-63
2021/01/20 11:03:17;;;;;;;7.03;4.85;;;8.50;99.90;;;;;;6935904;28;20399;-63
2021/01/20 11:06:38;;;;;;;6.57;4.60;;;8.50;99.90;;;;;;6926901;28;20858;-59
2021/01/20 11:10:04;;;;;;;7.15;4.80;;;8.40;99.90;;;;;;6930339;28;20477;-64
2021/01/20 11:13:25;;;;;;;6.40;4.75;;;8.50;99.90;;;;;;6935235;28;20410;-64
2021/01/20 11:16:46;;;;;;;6.40;4.70;;;8.80;99.90;;;;;;6931047;28;20499;-62
2021/01/20 11:20:07;;;;;;;11.97;7.10;;;8.80;99.90;;;;;;6924807;28;20421;-64
2021/01/20 11:23:35;;;;;;;6.90;4.67;;;8.80;99.90;;;;;;6949084;28;20415;-63
2021/01/20 11:26:56;;;;;;;6.35;4.60;;;9.00;99.90;;;;;;6944947;28;20418;-63
2021/01/20 11:30:18;;;;;;;7.70;4.70;;;9.10;99.90;;;;;;6921919;28;20415;-62
2021/01/20 11:33:39;;;;;;;6.50;4.60;;;9.00;99.90;;;;;;6938058;28;20422;-63
2021/01/20 11:37:00;;;;;;;6.30;4.50;;;9.30;99.90;;;;;;6937765;28;20409;-61
2021/01/20 11:40:21;;;;;;;6.90;4.50;;;9.50;99.90;;;;;;6926873;28;20409;-63
2021/01/20 11:43:41;;;;;;;6.60;4.70;;;9.40;99.90;;;;;;6942341;28;20895;-62
2021/01/20 11:47:02;;;;;;;5.70;4.28;;;9.30;99.90;;;;;;6928469;28;20879;-64
2021/01/20 11:50:24;;;;;;;5.80;4.20;;;9.10;99.90;;;;;;6931105;28;20407;-63
2021/01/20 11:53:45;;;;;;;6.68;4.60;;;9.10;99.90;;;;;;6928715;28;20819;-63
2021/01/20 11:57:06;;;;;;;7.00;4.80;;;9.00;99.90;;;;;;6927631;28;20408;-64
2021/01/20 12:00:27;;;;;;;7.10;4.23;;;8.90;99.90;;;;;;6947669;28;20430;-63
2021/01/20 12:03:48;;;;;;;7.00;4.60;;;8.80;99.90;;;;;;6935425;28;20479;-63
2021/01/20 12:07:11;;;;;;;7.72;5.00;;;8.80;99.90;;;;;;6946443;28;20961;-63
2021/01/20 12:10:32;;;;;;;6.30;4.90;;;8.90;99.90;;;;;;6949165;28;20468;-63
2021/01/20 12:13:52;;;;;;;5.68;4.10;;;8.90;99.90;;;;;;6954622;28;20418;-64
2021/01/20 12:17:13;;;;;;;6.10;4.40;;;8.90;99.90;;;;;;6943801;28;20417;-64
2021/01/20 12:20:34;;;;;;;6.55;4.28;;;8.90;99.90;;;;;;6961049;28;20398;-61
2021/01/20 12:23:55;;;;;;;6.30;4.80;;;8.70;99.90;;;;;;6942214;28;20458;-62
2021/01/20 12:27:16;;;;;;;6.70;4.30;;;8.70;99.90;;;;;;6948112;28;20421;-64
2021/01/20 12:30:37;;;;;;;6.40;4.43;;;8.70;99.90;;;;;;6944775;28;21057;-65
2021/01/20 12:33:57;;;;;;;5.70;4.30;;;8.70;99.90;;;;;;6952405;28;20397;-63
2021/01/20 12:37:18;;;;;;;6.27;4.67;;;8.70;99.90;;;;;;6944315;28;20407;-62
2021/01/20 12:40:39;;;;;;;7.10;5.30;;;8.70;99.90;;;;;;6949674;28;20511;-62
2021/01/20 12:44:00;;;;;;;8.63;4.60;;;8.80;99.90;;;;;;6942495;28;20404;-63
2021/01/20 12:47:22;;;;;;;6.30;4.20;;;8.80;99.90;;;;;;6950147;28;20801;-62
2021/01/20 12:50:43;;;;;;;6.30;4.20;;;8.90;99.90;;;;;;6952758;28;20405;-63
2021/01/20 12:54:04;;;;;;;6.30;4.30;;;8.90;99.90;;;;;;6975097;28;20481;-63
2021/01/20 12:57:25;;;;;;;6.18;4.20;;;8.90;99.90;;;;;;6945455;28;20485;-65
2021/01/20 13:00:46;;;;;;;5.65;4.40;;;9.00;99.90;;;;;;6966527;28;20869;-59
2021/01/20 13:04:07;;;;;;;5.87;4.27;;;8.90;99.90;;;;;;6943426;28;20897;-65
2021/01/20 13:07:28;;;;;;;5.40;3.70;;;9.10;99.90;;;;;;6955435;28;20418;-65
2021/01/20 13:10:48;;;;;;;5.57;3.90;;;9.00;99.90;;;;;;6972820;28;20396;-64
2021/01/20 13:14:09;;;;;;;5.78;4.10;;;9.10;99.90;;;;;;6948235;28;20393;-63
2021/01/20 13:17:31;;;;;;;5.80;3.90;;;9.00;99.90;;;;;;6948032;28;20410;-65
2021/01/20 13:20:52;;;;;;;6.80;4.20;;;9.10;99.90;;;;;;6944085;28;20398;-64
2021/01/20 13:24:13;;;;;;;5.78;4.00;;;9.10;99.90;;;;;;6935662;28;20418;-65
2021/01/20 13:27:34;;;;;;;6.30;4.10;;;9.30;99.90;;;;;;6947892;28;20456;-65
2021/01/20 13:30:56;;;;;;;6.20;4.17;;;11.10;99.90;;;;;;6949882;28;20431;-65
2021/01/20 13:34:17;;;;;;;5.43;4.10;;;12.10;99.90;;;;;;6941553;28;20413;-64
2021/01/20 13:37:38;;;;;;;5.87;4.10;;;11.30;99.90;;;;;;6943802;28;20757;-65
2021/01/20 13:40:58;;;;;;;5.65;3.90;;;11.50;99.90;;;;;;6954355;28;20889;-64
2021/01/20 13:44:19;;;;;;;6.47;3.87;;;13.20;99.90;;;;;;6961247;28;20404;-64
2021/01/20 13:47:40;;;;;;;5.30;3.80;;;14.00;99.90;;;;;;6972002;28;20810;-64
2021/01/20 13:51:01;;;;;;;6.40;3.97;;;13.80;99.90;;;;;;6945149;28;20419;-63
2021/01/20 13:54:22;;;;;;;6.30;4.20;;;13.10;99.90;;;;;;6929657;28;20426;-62
2021/01/20 13:57:43;;;;;;;5.03;3.50;;;12.50;99.90;;;;;;6927347;28;20470;-59
2021/01/20 14:01:03;;;;;;;4.97;3.70;;;12.60;99.90;;;;;;6938096;28;20487;-61
2021/01/20 14:04:24;;;;;;;4.80;3.60;;;11.70;99.90;;;;;;6945146;28;20406;-63
2021/01/20 14:07:45;;;;;;;5.80;4.10;;;11.00;99.90;;;;;;6961671;28;20807;-62
2021/01/20 14:11:06;;;;;;;5.70;3.80;;;10.70;99.90;;;;;;6922598;28;20494;-61
2021/01/20 14:14:29;;;;;;;5.50;3.80;;;10.80;99.90;;;;;;6942035;28;20510;-63
2021/01/20 14:17:50;;;;;;;5.40;3.70;;;11.40;99.90;;;;;;6926119;28;20411;-62
2021/01/20 14:21:11;;;;;;;5.05;3.60;;;12.00;99.90;;;;;;6947123;28;20548;-62
2021/01/20 14:24:31;;;;;;;5.30;3.60;;;11.80;99.90;;;;;;6954589;28;20541;-64
2021/01/20 14:27:52;;;;;;;5.18;3.70;;;11.30;99.90;;;;;;6943780;28;20410;-64
2021/01/20 14:31:14;;;;;;;6.10;3.90;;;11.00;99.90;;;;;;6935201;28;20401;-63
2021/01/20 14:34:35;;;;;;;6.00;3.80;;;10.60;99.90;;;;;;6944967;28;20964;-64
2021/01/20 14:37:56;;;;;;;5.40;3.70;;;10.30;99.90;;;;;;6952787;28;20413;-64
2021/01/20 14:41:17;;;;;;;5.90;4.00;;;10.20;99.90;;;;;;6949138;28;20490;-64
2021/01/20 14:44:38;;;;;;;5.97;4.00;;;10.10;99.90;;;;;;6935703;28;20427;-64
2021/01/20 14:47:59;;;;;;;5.03;3.60;;;10.00;99.90;;;;;;6953397;28;20892;-60
2021/01/20 14:51:21;;;;;;;5.83;3.80;;;10.00;99.90;;;;;;6941797;28;20423;-62
2021/01/20 14:54:47;;;;;;;6.50;4.00;;;9.80;99.90;;;;;;6928595;28;20411;-63
2021/01/20 14:58:08;;;;;;;5.75;4.13;;;9.60;99.90;;;;;;6942518;28;20523;-63
2021/01/20 15:01:29;;;;;;;5.57;3.80;;;9.60;99.90;;;;;;6937800;28;20414;-64
2021/01/20 15:04:50;;;;;;;6.00;3.90;;;9.50;99.90;;;;;;6944825;28;20400;-64
2021/01/20 15:08:10;;;;;;;6.35;3.80;;;9.50;99.90;;;;;;6944824;28;20923;-63
2021/01/20 15:11:31;;;;;;;6.00;3.90;;;9.40;99.90;;;;;;6930983;28;20889;-63
2021/01/20 15:14:52;;;;;;;5.45;3.90;;;9.20;99.90;;;;;;6941242;28;20414;-64
2021/01/20 15:18:13;;;;;;;5.03;3.60;;;9.20;99.90;;;;;;6946993;28;20415;-63
2021/01/20 15:21:34;;;;;;;5.68;3.55;;;9.20;99.90;;;;;;6933553;28;20865;-61
2021/01/20 15:24:55;;;;;;;5.60;3.70;;;9.10;99.90;;;;;;6955739;28;20410;-63
2021/01/20 15:28:16;;;;;;;4.90;3.60;;;9.20;99.90;;;;;;6937591;28;20466;-62
2021/01/20 15:31:36;;;;;;;6.17;3.90;;;9.10;99.90;;;;;;6938194;28;20476;-63
2021/01/20 15:34:57;;;;;;;5.00;3.70;;;9.00;99.90;;;;;;6928878;28;20415;-63
2021/01/20 15:38:21;;;;;;;5.35;3.58;;;9.00;99.90;;;;;;6923817;28;20986;-64
2021/01/20 15:41:41;;;;;;;5.70;3.63;;;8.90;99.90;;;;;;6918436;28;20962;-65
2021/01/20 15:45:03;;;;;;;5.60;4.10;;;8.80;99.90;;;;;;6923097;28;20478;-64
2021/01/20 15:48:25;;;;;;;5.45;3.83;;;8.80;99.90;;;;;;6927419;28;20422;-64
2021/01/20 15:51:46;;;;;;;6.32;4.00;;;8.80;99.90;;;;;;6940330;28;20418;-63
2021/01/20 15:55:07;;;;;;;6.73;4.10;;;8.80;99.90;;;;;;6924970;28;20445;-63
2021/01/20 15:58:28;;;;;;;5.55;3.80;;;8.80;99.90;;;;;;6947787;28;20414;-63
2021/01/20 16:01:50;;;;;;;5.60;3.80;;;8.80;99.90;;;;;;6915602;28;20500;-63
2021/01/20 16:05:11;;;;;;;5.05;3.63;;;8.80;99.90;;;;;;6927012;28;20407;-62
2021/01/20 16:08:32;;;;;;;5.15;3.60;;;8.70;99.90;;;;;;6928433;28;21033;-63
2021/01/20 16:11:53;;;;;;;5.15;3.70;;;8.70;99.90;;;;;;6925680;28;20469;-62
2021/01/20 16:15:15;;;;;;;5.15;3.78;;;8.70;99.90;;;;;;6926008;28;20406;-63
2021/01/20 16:18:36;;;;;;;5.75;3.90;;;8.70;99.90;;;;;;6932988;28;20760;-62
2021/01/20 16:21:57;;;;;;;5.55;3.90;;;8.60;99.90;;;;;;6922364;28;21046;-64
2021/01/20 16:25:19;;;;;;;5.40;3.90;;;8.60;99.90;;;;;;6931597;28;20533;-65
2021/01/20 16:28:39;;;;;;;6.07;4.07;;;8.60;99.90;;;;;;6940440;28;20433;-65
2021/01/20 16:32:00;;;;;;;5.30;3.77;;;8.60;99.90;;;;;;6927013;28;20416;-65
2021/01/20 16:35:21;;;;;;;5.50;4.00;;;8.50;99.90;;;;;;6958366;28;20404;-64
2021/01/20 16:38:43;;;;;;;5.63;4.10;;;8.60;99.90;;;;;;6951789;28;20769;-64
2021/01/20 16:42:09;;;;;;;6.00;3.95;;;8.60;99.90;;;;;;6956548;28;20396;-63
2021/01/20 16:45:29;;;;;;;6.03;4.10;;;8.70;99.90;;;;;;6937024;28;20756;-63
2021/01/20 16:48:50;;;;;;;5.00;3.75;;;8.70;99.90;;;;;;6937082;28;20415;-63
2021/01/20 16:52:11;;;;;;;7.00;3.93;;;8.70;99.90;;;;;;6939265;28;20956;-63
2021/01/20 16:55:32;;;;;;;5.90;4.28;;;8.80;99.90;;;;;;6941817;28;20410;-63
2021/01/20 16:58:53;;;;;;;6.70;4.30;;;8.90;99.90;;;;;;6960878;28;20407;-63
2021/01/20 17:02:14;;;;;;;6.60;4.10;;;8.80;99.90;;;;;;6944161;28;20780;-63
2021/01/20 17:05:35;;;;;;;5.37;4.20;;;8.80;99.90;;;;;;6933461;28;20537;-65
2021/01/20 17:08:55;;;;;;;7.10;4.00;;;8.90;99.90;;;;;;6945208;28;20419;-63
2021/01/20 17:12:16;;;;;;;6.35;4.20;;;8.90;99.90;;;;;;6936622;28;20943;-63
2021/01/20 17:15:38;;;;;;;6.63;4.30;;;8.80;99.90;;;;;;6930380;28;20756;-63
2021/01/20 17:18:59;;;;;;;6.00;4.30;;;8.80;99.90;;;;;;6913322;28;20422;-64
2021/01/20 17:22:20;;;;;;;6.60;4.15;;;8.90;99.90;;;;;;6922783;28;20501;-62
2021/01/20 17:25:41;;;;;;;6.03;4.45;;;8.80;99.90;;;;;;6942623;28;20410;-63
2021/01/20 17:29:05;;;;;;;6.47;4.28;;;8.80;99.90;;;;;;6926681;28;20417;-63
2021/01/20 17:32:26;;;;;;;5.80;4.43;;;8.90;99.90;;;;;;6926572;28;20426;-64
2021/01/20 17:35:48;;;;;;;6.63;4.60;;;8.90;99.90;;;;;;6936135;28;20903;-61
2021/01/20 17:39:10;;;;;;;6.87;4.57;;;8.80;99.90;;;;;;6952268;28;20430;-64
2021/01/20 17:42:30;;;;;;;6.43;4.40;;;8.80;99.90;;;;;;6936763;28;20486;-64